createdAt,value
2022-09-07T00:01:01.621Z,557.00
2022-09-07T00:06:33.676Z,552.00
2022-09-07T00:12:05.499Z,552.00
2022-09-07T00:17:37.387Z,552.00
2022-09-07T00:23:09.275Z,550.00
2022-09-07T00:28:40.831Z,547.00
2022-09-07T00:34:12.815Z,544.00
2022-09-07T00:39:44.862Z,547.00
2022-09-07T00:45:16.967Z,543.00
2022-09-07T00:50:48.985Z,543.00
2022-09-07T00:56:20.869Z,546.00
2022-09-07T01:01:52.811Z,548.00
2022-09-07T01:07:24.322Z,544.00
2022-09-07T01:12:56.344Z,547.00
2022-09-07T01:18:28.166Z,549.00
2022-09-07T01:24:00.374Z,541.00
2022-09-07T01:29:32.457Z,544.00
2022-09-07T01:35:04.250Z,547.00
2022-09-07T01:40:36.118Z,545.00
2022-09-07T01:46:08.050Z,547.00
2022-09-07T01:51:40.100Z,546.00
2022-09-07T01:57:11.894Z,548.00
2022-09-07T02:02:43.858Z,540.00
2022-09-07T02:08:15.644Z,536.00
2022-09-07T02:13:47.578Z,540.00
2022-09-07T02:19:19.296Z,546.00
2022-09-07T02:24:51.146Z,542.00
2022-09-07T02:30:23.177Z,542.00
2022-09-07T02:35:54.596Z,545.00
2022-09-07T02:41:26.477Z,546.00
2022-09-07T02:46:58.302Z,545.00
2022-09-07T02:52:30.090Z,542.00
2022-09-07T02:58:01.959Z,537.00
2022-09-07T03:03:33.813Z,535.00
2022-09-07T03:09:05.505Z,535.00
2022-09-07T03:14:37.398Z,529.00
2022-09-07T03:22:30.346Z,526.00
2022-09-07T03:28:02.396Z,530.00
2022-09-07T03:33:34.506Z,528.00
2022-09-07T03:39:06.243Z,525.00
2022-09-07T03:44:37.904Z,520.00
2022-09-07T03:50:09.864Z,523.00
2022-09-07T03:55:41.421Z,523.00
2022-09-07T04:01:13.256Z,521.00
2022-09-07T04:06:44.868Z,523.00
2022-09-07T04:12:16.642Z,526.00
2022-09-07T04:17:48.758Z,526.00
2022-09-07T04:23:20.096Z,525.00
2022-09-07T04:28:52.418Z,522.00
2022-09-07T04:34:24.571Z,530.00
2022-09-07T04:39:56.266Z,533.00
2022-09-07T04:45:27.864Z,530.00
2022-09-07T04:51:02.907Z,528.00
2022-09-07T04:56:31.423Z,530.00
2022-09-07T05:02:03.244Z,536.00
2022-09-07T05:07:35.103Z,540.00
2022-09-07T05:13:06.601Z,540.00
2022-09-07T05:18:38.400Z,540.00
2022-09-07T05:24:10.126Z,536.00
2022-09-07T05:35:13.473Z,533.00
2022-09-07T05:40:45.112Z,534.00
2022-09-07T05:46:16.937Z,533.00
2022-09-07T05:51:48.922Z,535.00
2022-09-07T05:57:20.463Z,535.00
2022-09-07T06:02:52.430Z,531.00
2022-09-07T06:08:23.834Z,530.00
2022-09-07T06:13:55.852Z,530.00
2022-09-07T06:19:27.840Z,526.00
2022-09-07T06:24:59.383Z,532.00
2022-09-07T06:36:03.231Z,533.00
2022-09-07T06:47:06.516Z,537.00
2022-09-07T06:58:10.122Z,541.00
2022-09-07T07:03:42.093Z,539.00
2022-09-07T07:09:14.043Z,539.00
2022-09-07T07:14:45.429Z,535.00
2022-09-07T07:20:17.294Z,538.00
2022-09-07T07:25:49.087Z,533.00
2022-09-07T07:31:21.097Z,528.00
2022-09-07T07:36:53.176Z,530.00
2022-09-07T07:42:24.776Z,528.00
2022-09-07T07:47:56.511Z,523.00
2022-09-07T07:53:43.650Z,523.00
2022-09-07T07:59:00.131Z,525.00
2022-09-07T08:10:01.338Z,514.00
2022-09-07T08:15:33.339Z,514.00
2022-09-07T08:21:04.865Z,517.00
2022-09-07T08:32:06.721Z,519.00
2022-09-07T08:37:38.532Z,521.00
2022-09-07T08:43:10.377Z,517.00
2022-09-07T08:48:42.525Z,518.00
2022-09-07T08:54:14.335Z,520.00
2022-09-07T08:59:46.018Z,521.00
2022-09-07T09:10:47.223Z,522.00
2022-09-07T09:16:19.498Z,524.00
2022-09-07T09:21:51.103Z,515.00
2022-09-07T09:27:22.814Z,516.00
2022-09-07T09:32:54.679Z,501.00
2022-09-07T09:38:27.091Z,500.00
2022-09-07T09:43:58.859Z,486.00
2022-09-07T09:49:30.422Z,489.00
2022-09-07T09:55:33.997Z,493.00
2022-09-07T10:00:34.728Z,493.00
2022-09-07T10:06:05.805Z,489.00
2022-09-07T10:17:09.698Z,487.00
2022-09-07T10:22:41.247Z,489.00
2022-09-07T10:28:13.319Z,483.00
2022-09-07T10:34:25.671Z,486.00
2022-09-07T10:39:16.726Z,485.00
2022-09-07T10:50:24.638Z,481.00
2022-09-07T10:55:49.296Z,483.00
2022-09-07T11:01:21.218Z,480.00
2022-09-07T11:06:52.993Z,477.00
2022-09-07T11:12:27.953Z,475.00
2022-09-07T11:17:56.527Z,473.00
2022-09-07T11:23:28.183Z,477.00
2022-09-07T11:34:32.020Z,471.00
2022-09-07T11:40:03.553Z,475.00
2022-09-07T11:45:35.561Z,474.00
2022-09-07T11:51:07.347Z,469.00
2022-09-07T11:56:39.129Z,466.00
2022-09-07T12:02:10.948Z,466.00
2022-09-07T12:07:42.738Z,466.00
2022-09-07T12:13:14.479Z,463.00
2022-09-07T12:18:46.253Z,462.00
2022-09-07T12:24:17.833Z,461.00
2022-09-07T12:29:49.583Z,448.00
2022-09-07T12:35:21.298Z,451.00
2022-09-07T12:40:53.495Z,453.00
2022-09-07T12:46:25.552Z,455.00
2022-09-07T12:52:06.868Z,449.00
2022-09-07T12:57:29.378Z,447.00
2022-09-07T13:08:30.872Z,446.00
2022-09-07T13:14:04.526Z,443.00
2022-09-07T13:19:35.431Z,448.00
2022-09-07T13:30:36.291Z,451.00
2022-09-07T13:36:08.064Z,451.00
2022-09-07T13:41:39.960Z,450.00
2022-09-07T13:47:11.520Z,454.00
2022-09-07T13:52:45.776Z,450.00
2022-09-07T14:03:49.129Z,447.00
2022-09-07T14:09:20.781Z,443.00
2022-09-07T14:14:52.614Z,444.00
2022-09-07T14:20:24.596Z,443.00
2022-09-07T14:31:28.213Z,450.00
2022-09-07T14:37:01.445Z,447.00
2022-09-07T14:42:32.145Z,449.00
2022-09-07T14:48:03.986Z,450.00
2022-09-07T14:53:36.106Z,451.00
2022-09-07T14:59:07.547Z,450.00
2022-09-07T15:15:43.149Z,446.00
2022-09-07T15:21:14.626Z,449.00
2022-09-07T15:32:18.215Z,453.00
2022-09-07T15:38:06.053Z,449.00
2022-09-07T15:43:23.320Z,448.00
2022-09-07T15:48:53.439Z,448.00
2022-09-07T15:54:25.600Z,447.00
2022-09-07T15:59:57.882Z,448.00
2022-09-07T16:05:31.314Z,452.00
2022-09-07T16:11:12.503Z,444.00
2022-09-07T16:22:07.290Z,451.00
2022-09-07T16:27:38.896Z,449.00
2022-09-07T16:33:10.889Z,451.00
2022-09-07T16:35:22.166Z,454.00
2022-09-07T16:40:53.620Z,454.00
2022-09-07T16:46:25.311Z,459.00
2022-09-07T16:51:57.683Z,462.00
2022-09-07T16:58:35.186Z,461.00
2022-09-07T17:03:01.330Z,463.00
2022-09-07T17:08:33.379Z,465.00
2022-09-07T17:14:04.926Z,463.00
2022-09-07T17:19:37.012Z,463.00
2022-09-07T17:25:09.201Z,461.00
2022-09-07T17:36:13.422Z,467.00
2022-09-07T17:41:45.639Z,470.00
2022-09-07T17:47:17.347Z,466.00
2022-09-07T17:52:52.691Z,463.00
2022-09-07T17:58:20.890Z,462.00
2022-09-07T18:03:52.489Z,464.00
2022-09-07T18:09:23.632Z,461.00
2022-09-07T18:14:55.567Z,462.00
2022-09-07T18:20:27.405Z,466.00
2022-09-07T18:25:59.025Z,468.00
2022-09-07T18:31:30.471Z,465.00
2022-09-07T18:37:02.497Z,465.00
2022-09-07T18:42:34.584Z,465.00
2022-09-07T18:48:06.093Z,460.00
2022-09-07T18:53:37.591Z,457.00
2022-09-07T18:59:09.394Z,455.00
2022-09-07T19:12:24.189Z,450.00
2022-09-07T19:17:56.200Z,458.00
2022-09-07T19:25:40.471Z,455.00
2022-09-07T19:31:12.461Z,456.00
2022-09-07T19:36:44.138Z,456.00
2022-09-07T19:44:42.715Z,452.00
2022-09-07T19:50:14.397Z,453.00
2022-09-07T19:55:45.903Z,451.00
2022-09-07T20:01:17.357Z,448.00
2022-09-07T20:06:48.899Z,448.00
2022-09-07T20:12:20.351Z,448.00
2022-09-07T20:17:51.718Z,447.00
2022-09-07T20:23:29.258Z,444.00
2022-09-07T20:34:32.548Z,450.00
2022-09-07T20:40:10.174Z,454.00
2022-09-07T20:45:47.755Z,449.00
2022-09-07T20:51:21.003Z,455.00
2022-09-07T20:56:59.989Z,459.00
2022-09-07T21:02:28.296Z,460.00
2022-09-07T21:13:29.107Z,460.00
2022-09-07T21:19:00.260Z,467.00
2022-09-07T21:24:31.670Z,472.00
2022-09-07T21:30:03.259Z,480.00
2022-09-07T21:35:34.738Z,479.00
2022-09-07T21:41:06.051Z,485.00
2022-09-07T21:43:29.017Z,485.00
2022-09-07T21:49:00.193Z,488.00
2022-09-07T21:54:31.674Z,495.00
2022-09-07T22:00:03.244Z,490.00
2022-09-07T22:05:34.673Z,485.00
2022-09-07T22:11:05.945Z,486.00
2022-09-07T22:16:37.452Z,489.00
2022-09-07T22:22:08.730Z,484.00
2022-09-07T22:27:40.084Z,483.00
2022-09-07T22:38:41.039Z,492.00
2022-09-07T22:44:12.592Z,493.00
2022-09-07T22:49:43.969Z,493.00
2022-09-07T22:55:15.690Z,489.00
2022-09-07T23:00:47.241Z,485.00
2022-09-07T23:06:18.668Z,484.00
2022-09-07T23:11:49.872Z,472.00
2022-09-07T23:17:21.319Z,467.00
2022-09-07T23:22:53.075Z,464.00
2022-09-07T23:28:24.852Z,461.00
2022-09-07T23:39:26.209Z,461.00
2022-09-07T23:50:27.517Z,449.00
2022-09-07T23:55:59.373Z,449.00
